createdAt,value
2022-08-31T00:00:05.824Z,4.10
2022-08-31T00:02:33.550Z,4.57
2022-08-31T00:05:00.820Z,4.73
2022-08-31T00:07:27.998Z,5.20
2022-08-31T00:09:56.480Z,4.90
2022-08-31T00:12:23.861Z,4.83
2022-08-31T00:14:51.421Z,5.47
2022-08-31T00:17:18.605Z,5.50
2022-08-31T00:19:45.741Z,5.03
2022-08-31T00:22:12.947Z,5.40
2022-08-31T00:24:40.054Z,5.50
2022-08-31T00:27:08.563Z,5.27
2022-08-31T00:29:35.703Z,6.07
2022-08-31T00:32:03.056Z,5.40
2022-08-31T00:34:31.123Z,5.50
2022-08-31T00:36:58.369Z,5.40
2022-08-31T00:39:25.500Z,5.73
2022-08-31T00:41:52.673Z,6.47
2022-08-31T00:44:23.090Z,5.73
2022-08-31T00:46:50.323Z,6.80
2022-08-31T00:49:18.635Z,5.27
2022-08-31T00:51:47.537Z,5.57
2022-08-31T00:54:15.581Z,5.23
2022-08-31T00:56:43.019Z,5.50
2022-08-31T00:59:10.352Z,5.63
2022-08-31T01:01:39.003Z,5.03
2022-08-31T01:04:06.429Z,5.93
2022-08-31T01:06:33.566Z,5.00
2022-08-31T01:09:02.038Z,5.37
2022-08-31T01:11:31.538Z,5.07
2022-08-31T01:13:59.004Z,5.63
2022-08-31T01:16:28.566Z,5.70
2022-08-31T01:18:59.304Z,6.07
2022-08-31T01:21:28.849Z,6.00
2022-08-31T01:23:59.359Z,6.17
2022-08-31T01:26:28.598Z,6.30
2022-08-31T01:28:57.623Z,6.10
2022-08-31T01:31:27.754Z,6.57
2022-08-31T01:33:55.498Z,6.70
2022-08-31T01:36:25.682Z,6.47
2022-08-31T01:38:53.447Z,6.20
2022-08-31T01:41:22.834Z,7.17
2022-08-31T01:43:50.143Z,6.37
2022-08-31T01:46:17.352Z,5.57
2022-08-31T01:48:45.434Z,6.13
2022-08-31T01:51:13.478Z,5.83
2022-08-31T01:53:42.603Z,5.90
2022-08-31T01:56:13.309Z,5.80
2022-08-31T01:58:42.140Z,6.83
2022-08-31T02:01:34.359Z,6.03
2022-08-31T02:04:05.617Z,6.20
2022-08-31T02:06:33.277Z,5.50
2022-08-31T02:09:00.699Z,6.53
2022-08-31T02:11:27.947Z,6.87
2022-08-31T02:13:56.458Z,6.40
2022-08-31T02:16:24.299Z,6.00
2022-08-31T02:18:51.772Z,5.77
2022-08-31T02:21:18.941Z,6.03
2022-08-31T02:23:46.567Z,5.97
2022-08-31T02:26:13.728Z,5.63
2022-08-31T02:28:44.064Z,5.33
2022-08-31T02:31:12.644Z,6.07
2022-08-31T02:33:47.379Z,6.07
2022-08-31T02:36:14.565Z,6.30
2022-08-31T02:38:42.500Z,5.87
2022-08-31T02:41:10.267Z,5.60
2022-08-31T02:43:40.017Z,5.30
2022-08-31T02:46:07.181Z,5.23
2022-08-31T02:48:42.377Z,4.47
2022-08-31T02:51:13.782Z,4.30
2022-08-31T02:53:40.977Z,4.83
2022-08-31T02:56:08.423Z,5.30
2022-08-31T02:58:35.810Z,4.03
2022-08-31T03:01:03.199Z,4.30
2022-08-31T03:03:32.162Z,4.37
2022-08-31T03:06:02.128Z,5.17
2022-08-31T03:08:31.153Z,3.93
2022-08-31T03:10:59.171Z,4.20
2022-08-31T03:13:26.432Z,5.10
2022-08-31T03:15:53.663Z,4.57
2022-08-31T03:18:21.798Z,5.60
2022-08-31T03:20:50.141Z,4.10
2022-08-31T03:23:19.030Z,4.60
2022-08-31T03:25:47.375Z,4.27
2022-08-31T03:28:14.794Z,4.90
2022-08-31T03:30:47.615Z,5.70
2022-08-31T03:33:15.294Z,4.00
2022-08-31T03:35:42.635Z,5.03
2022-08-31T03:38:10.078Z,5.10
2022-08-31T03:40:38.726Z,4.13
2022-08-31T03:43:05.939Z,4.40
2022-08-31T03:45:34.292Z,4.50
2022-08-31T03:48:01.469Z,4.57
2022-08-31T03:50:29.386Z,4.23
2022-08-31T03:53:01.657Z,4.47
2022-08-31T03:55:29.526Z,3.77
2022-08-31T03:57:58.098Z,3.80
2022-08-31T04:00:25.673Z,4.73
2022-08-31T04:03:00.341Z,3.90
2022-08-31T04:05:31.148Z,4.40
2022-08-31T04:08:36.716Z,4.47
2022-08-31T04:11:22.991Z,4.30
2022-08-31T04:14:34.184Z,4.30
2022-08-31T04:17:30.295Z,3.93
2022-08-31T04:20:17.506Z,3.93
2022-08-31T04:22:48.655Z,4.00
2022-08-31T04:25:44.844Z,3.90
2022-08-31T04:28:12.568Z,3.80
2022-08-31T04:30:43.062Z,3.70
2022-08-31T04:33:12.547Z,3.50
2022-08-31T04:35:39.935Z,3.87
2022-08-31T04:38:07.182Z,4.40
2022-08-31T04:40:37.519Z,3.73
2022-08-31T04:43:06.183Z,3.53
2022-08-31T04:45:33.377Z,4.57
2022-08-31T04:48:01.888Z,3.80
2022-08-31T04:50:29.444Z,4.53
2022-08-31T04:53:09.117Z,4.20
2022-08-31T04:55:39.201Z,3.77
2022-08-31T04:58:06.368Z,4.00
2022-08-31T05:00:34.760Z,3.97
2022-08-31T05:03:20.281Z,3.57
2022-08-31T05:05:50.233Z,3.57
2022-08-31T05:08:17.437Z,3.80
2022-08-31T05:10:44.601Z,3.70
2022-08-31T05:13:11.978Z,4.03
2022-08-31T05:15:41.193Z,3.87
2022-08-31T05:18:08.434Z,4.17
2022-08-31T05:20:40.816Z,3.50
2022-08-31T05:23:09.352Z,2.93
2022-08-31T05:25:38.947Z,4.07
2022-08-31T05:28:06.098Z,4.37
2022-08-31T05:30:33.278Z,3.47
2022-08-31T05:33:04.746Z,3.77
2022-08-31T05:35:32.196Z,4.10
2022-08-31T05:38:00.706Z,3.27
2022-08-31T05:40:27.999Z,3.83
2022-08-31T05:42:56.185Z,3.80
2022-08-31T05:45:23.334Z,3.87
2022-08-31T05:47:51.162Z,3.40
2022-08-31T05:50:18.307Z,3.30
2022-08-31T05:52:45.898Z,3.03
2022-08-31T05:55:14.515Z,3.13
2022-08-31T05:57:41.669Z,3.50
2022-08-31T06:00:09.525Z,3.50
2022-08-31T06:02:40.028Z,3.27
2022-08-31T06:05:08.539Z,3.70
2022-08-31T06:07:36.172Z,3.73
2022-08-31T06:10:06.658Z,3.23
2022-08-31T06:12:35.267Z,3.00
2022-08-31T06:15:02.468Z,3.40
2022-08-31T06:17:29.735Z,3.53
2022-08-31T06:19:56.916Z,3.67
2022-08-31T06:22:24.181Z,2.90
2022-08-31T06:24:53.683Z,2.93
2022-08-31T06:27:20.955Z,3.43
2022-08-31T06:29:51.093Z,3.13
2022-08-31T06:32:18.262Z,3.10
2022-08-31T06:34:58.158Z,3.60
2022-08-31T06:37:54.295Z,3.33
2022-08-31T06:40:40.368Z,2.57
2022-08-31T06:43:43.642Z,3.07
2022-08-31T06:46:37.493Z,3.20
2022-08-31T06:49:18.385Z,3.00
2022-08-31T06:51:45.749Z,3.53
2022-08-31T06:54:29.571Z,3.30
2022-08-31T06:57:15.461Z,3.50
2022-08-31T06:59:57.465Z,3.47
2022-08-31T07:02:52.973Z,3.67
2022-08-31T07:05:24.983Z,3.60
2022-08-31T07:07:53.515Z,3.50
2022-08-31T07:10:20.674Z,3.63
2022-08-31T07:12:48.291Z,3.27
2022-08-31T07:15:15.533Z,3.87
2022-08-31T07:17:42.730Z,2.97
2022-08-31T07:20:12.467Z,4.13
2022-08-31T07:22:39.724Z,3.93
2022-08-31T07:25:24.541Z,3.00
2022-08-31T07:27:51.778Z,3.63
2022-08-31T07:30:19.087Z,4.27
2022-08-31T07:32:46.637Z,3.73
2022-08-31T07:35:15.181Z,3.47
2022-08-31T07:37:54.756Z,2.90
2022-08-31T07:40:25.908Z,3.10
2022-08-31T07:42:53.138Z,3.70
2022-08-31T07:45:23.051Z,3.20
2022-08-31T07:47:52.131Z,3.73
2022-08-31T07:50:22.757Z,3.23
2022-08-31T07:53:11.790Z,4.60
2022-08-31T07:55:45.273Z,3.70
2022-08-31T07:58:36.459Z,3.40
2022-08-31T08:01:03.698Z,3.70
2022-08-31T08:03:30.853Z,3.13
2022-08-31T08:06:17.897Z,4.07
2022-08-31T08:09:21.982Z,3.47
2022-08-31T08:12:01.420Z,3.13
2022-08-31T08:14:46.252Z,3.33
2022-08-31T08:17:33.870Z,2.97
2022-08-31T08:20:05.258Z,4.00
2022-08-31T08:22:50.950Z,4.03
2022-08-31T08:25:31.508Z,3.70
2022-08-31T08:31:05.569Z,4.13
2022-08-31T08:33:34.116Z,3.70
2022-08-31T08:36:03.465Z,4.37
2022-08-31T08:38:32.018Z,4.20
2022-08-31T08:41:01.951Z,4.00
2022-08-31T08:43:31.120Z,3.58
2022-08-31T08:46:10.491Z,3.30
2022-08-31T08:48:46.075Z,3.65
2022-08-31T08:51:34.772Z,3.03
2022-08-31T08:54:07.827Z,3.00
2022-08-31T08:56:37.856Z,3.00
2022-08-31T08:59:09.902Z,3.55
2022-08-31T09:01:40.067Z,2.97
2022-08-31T09:04:12.276Z,3.05
2022-08-31T09:07:10.353Z,2.70
2022-08-31T09:09:42.722Z,2.90
2022-08-31T09:12:17.576Z,2.50
2022-08-31T09:14:51.431Z,3.13
2022-08-31T09:17:25.673Z,3.13
2022-08-31T09:19:53.277Z,3.35
2022-08-31T09:22:20.499Z,3.05
2022-08-31T09:24:52.040Z,3.13
2022-08-31T09:27:45.521Z,2.90
2022-08-31T09:30:32.962Z,3.05
2022-08-31T09:33:00.158Z,2.95
2022-08-31T09:35:30.410Z,3.33
2022-08-31T09:38:02.009Z,3.22
2022-08-31T09:40:39.015Z,3.20
2022-08-31T09:43:07.737Z,3.03
2022-08-31T09:45:41.277Z,3.13
2022-08-31T09:48:09.629Z,3.20
2022-08-31T09:50:39.206Z,3.00
2022-08-31T09:53:10.368Z,3.42
2022-08-31T09:55:38.990Z,2.67
2022-08-31T09:58:06.112Z,2.85
2022-08-31T10:00:35.553Z,3.17
2022-08-31T10:03:17.522Z,3.38
2022-08-31T10:05:44.966Z,2.90
2022-08-31T10:08:19.512Z,3.60
2022-08-31T10:10:50.124Z,3.25
2022-08-31T10:13:20.753Z,3.20
2022-08-31T10:15:50.890Z,3.30
2022-08-31T10:18:21.313Z,3.28
2022-08-31T10:20:50.695Z,3.78
2022-08-31T10:23:20.156Z,3.75
2022-08-31T10:25:51.693Z,3.47
2022-08-31T10:28:23.752Z,3.58
2022-08-31T10:30:53.131Z,3.10
2022-08-31T10:33:22.060Z,3.60
2022-08-31T10:35:53.211Z,3.45
2022-08-31T10:38:23.955Z,2.78
2022-08-31T10:40:56.179Z,3.38
2022-08-31T10:43:25.705Z,3.25
2022-08-31T10:45:54.229Z,3.15
2022-08-31T10:48:22.652Z,3.17
2022-08-31T10:50:52.299Z,2.80
2022-08-31T10:53:22.326Z,3.20
2022-08-31T10:55:55.587Z,2.83
2022-08-31T10:58:29.008Z,3.13
2022-08-31T11:01:00.670Z,3.42
2022-08-31T11:03:38.500Z,3.58
2022-08-31T11:06:08.772Z,3.10
2022-08-31T11:08:43.368Z,2.75
2022-08-31T11:11:12.634Z,3.30
2022-08-31T11:13:53.322Z,3.73
2022-08-31T11:16:27.129Z,3.33
2022-08-31T11:19:09.163Z,3.50
2022-08-31T11:21:51.601Z,4.17
2022-08-31T11:24:25.850Z,3.30
2022-08-31T11:26:57.186Z,3.80
2022-08-31T11:29:30.486Z,3.43
2022-08-31T11:32:00.388Z,3.20
2022-08-31T11:34:30.124Z,3.30
2022-08-31T11:36:57.859Z,3.70
2022-08-31T11:39:33.810Z,3.47
2022-08-31T11:42:01.206Z,3.60
2022-08-31T11:44:45.921Z,4.00
2022-08-31T11:47:31.985Z,3.90
2022-08-31T11:49:59.688Z,3.63
2022-08-31T11:52:31.854Z,4.07
2022-08-31T11:55:01.401Z,4.20
2022-08-31T11:57:34.197Z,3.70
2022-08-31T12:00:17.846Z,4.50
2022-08-31T12:02:45.397Z,3.80
2022-08-31T12:05:12.740Z,4.50
2022-08-31T12:07:41.866Z,3.83
2022-08-31T12:10:24.048Z,4.40
2022-08-31T12:13:11.504Z,3.63
2022-08-31T12:15:47.915Z,4.67
2022-08-31T12:18:22.634Z,4.20
2022-08-31T12:20:54.771Z,4.60
2022-08-31T12:23:30.140Z,4.17
2022-08-31T12:26:05.167Z,4.00
2022-08-31T12:28:36.269Z,4.17
2022-08-31T12:31:06.123Z,4.60
2022-08-31T12:33:34.415Z,4.77
2022-08-31T12:36:12.610Z,4.07
2022-08-31T12:38:39.795Z,3.80
2022-08-31T12:41:09.842Z,4.67
2022-08-31T12:43:38.821Z,4.17
2022-08-31T12:46:25.572Z,4.83
2022-08-31T12:49:10.635Z,4.53
2022-08-31T12:51:43.335Z,4.23
2022-08-31T12:54:23.704Z,5.00
2022-08-31T12:56:56.380Z,4.93
2022-08-31T12:59:45.705Z,5.20
2022-08-31T13:02:16.749Z,5.43
2022-08-31T13:04:45.931Z,4.50
2022-08-31T13:07:13.993Z,4.47
2022-08-31T13:09:41.206Z,4.73
2022-08-31T13:12:08.894Z,3.97
2022-08-31T13:14:40.350Z,4.83
2022-08-31T13:17:12.466Z,4.20
2022-08-31T13:19:46.193Z,5.37
2022-08-31T13:22:13.515Z,4.40
2022-08-31T13:24:41.851Z,4.23
2022-08-31T13:27:17.160Z,4.60
2022-08-31T13:29:44.548Z,3.70
2022-08-31T13:32:12.946Z,4.00
2022-08-31T13:34:41.672Z,3.93
2022-08-31T13:37:09.958Z,3.23
2022-08-31T13:39:37.168Z,3.70
2022-08-31T13:42:06.923Z,4.10
2022-08-31T13:44:35.290Z,3.70
2022-08-31T13:47:03.151Z,4.60
2022-08-31T13:49:31.653Z,3.73
2022-08-31T13:52:00.609Z,3.80
2022-08-31T13:54:28.844Z,4.00
2022-08-31T13:56:55.953Z,3.57
2022-08-31T13:59:27.197Z,4.40
2022-08-31T14:01:55.601Z,3.90
2022-08-31T14:04:29.692Z,4.10
2022-08-31T14:06:56.858Z,3.93
2022-08-31T14:09:25.356Z,3.83
2022-08-31T14:11:53.301Z,4.30
2022-08-31T14:14:25.415Z,4.03
2022-08-31T14:16:56.504Z,4.17
2022-08-31T14:19:30.550Z,3.47
2022-08-31T14:22:13.809Z,2.87
2022-08-31T14:24:42.392Z,3.20
2022-08-31T14:27:09.572Z,4.00
2022-08-31T14:29:36.701Z,3.60
2022-08-31T14:32:04.044Z,4.20
2022-08-31T14:34:31.843Z,3.30
2022-08-31T14:37:00.032Z,3.83
2022-08-31T14:39:28.500Z,3.80
2022-08-31T14:41:57.975Z,3.53
2022-08-31T14:44:27.430Z,3.87
2022-08-31T14:46:54.588Z,3.97
2022-08-31T14:49:21.943Z,3.40
2022-08-31T14:51:49.126Z,3.60
2022-08-31T14:54:16.272Z,3.57
2022-08-31T14:56:46.008Z,3.67
2022-08-31T14:59:15.022Z,3.40
2022-08-31T15:01:42.948Z,3.67
2022-08-31T15:04:11.934Z,3.90
2022-08-31T15:06:39.146Z,4.40
2022-08-31T15:09:06.319Z,4.27
2022-08-31T15:11:33.752Z,3.87
2022-08-31T15:14:00.980Z,3.40
2022-08-31T15:16:29.509Z,4.03
2022-08-31T15:18:56.719Z,3.80
2022-08-31T15:21:23.921Z,3.57
2022-08-31T15:23:51.095Z,3.63
2022-08-31T15:26:18.605Z,3.97
2022-08-31T15:28:45.720Z,4.10
2022-08-31T15:31:19.558Z,3.30
2022-08-31T15:33:48.203Z,3.53
2022-08-31T15:36:15.925Z,3.10
2022-08-31T15:38:45.731Z,3.00
2022-08-31T15:41:13.470Z,3.60
2022-08-31T15:43:40.657Z,3.10
2022-08-31T15:46:12.058Z,3.80
2022-08-31T15:48:41.112Z,3.03
2022-08-31T15:51:14.483Z,2.97
2022-08-31T15:53:41.674Z,3.77
2022-08-31T15:56:08.937Z,3.43
2022-08-31T15:58:36.848Z,3.40
2022-08-31T16:01:05.396Z,3.13
2022-08-31T16:03:35.107Z,3.33
2022-08-31T16:06:02.577Z,3.20
2022-08-31T16:08:31.139Z,2.97
2022-08-31T16:10:58.328Z,2.93
2022-08-31T16:13:25.545Z,2.67
2022-08-31T16:15:53.192Z,3.20
2022-08-31T16:18:20.797Z,3.10
2022-08-31T16:20:48.226Z,2.87
2022-08-31T16:23:15.610Z,2.83
2022-08-31T16:25:48.464Z,2.77
2022-08-31T16:28:16.864Z,3.10
2022-08-31T16:30:44.106Z,2.73
2022-08-31T16:33:11.402Z,3.87
2022-08-31T16:35:39.761Z,2.83
2022-08-31T16:38:07.013Z,2.90
2022-08-31T16:40:34.390Z,2.70
2022-08-31T16:43:03.082Z,3.03
2022-08-31T16:45:30.401Z,2.40
2022-08-31T16:47:57.709Z,3.10
2022-08-31T16:50:24.919Z,2.77
2022-08-31T16:52:52.223Z,2.80
2022-08-31T16:55:19.576Z,2.73
2022-08-31T16:57:46.829Z,3.10
2022-08-31T17:00:15.735Z,3.07
2022-08-31T17:02:42.955Z,2.63
2022-08-31T17:05:10.298Z,3.10
2022-08-31T17:07:37.506Z,2.67
2022-08-31T17:10:04.984Z,2.73
2022-08-31T17:12:32.215Z,2.73
2022-08-31T17:15:00.139Z,2.80
2022-08-31T17:17:28.682Z,2.80
2022-08-31T17:19:56.199Z,2.60
2022-08-31T17:22:31.708Z,2.73
2022-08-31T17:25:00.821Z,2.50
2022-08-31T17:27:28.047Z,2.47
2022-08-31T17:29:55.415Z,2.73
2022-08-31T17:32:24.488Z,2.93
2022-08-31T17:34:53.279Z,2.47
2022-08-31T17:37:21.756Z,2.97
2022-08-31T17:39:49.065Z,2.90
2022-08-31T17:42:16.295Z,3.00
2022-08-31T17:44:43.532Z,2.67
2022-08-31T17:47:11.065Z,3.13
2022-08-31T17:49:39.170Z,2.70
2022-08-31T17:52:09.950Z,2.97
2022-08-31T17:54:38.049Z,2.80
2022-08-31T17:57:05.313Z,2.70
2022-08-31T17:59:33.755Z,2.93
2022-08-31T18:02:02.598Z,2.40
2022-08-31T18:04:30.829Z,3.00
2022-08-31T18:06:58.186Z,2.70
2022-08-31T18:09:27.443Z,2.57
2022-08-31T18:11:55.384Z,2.50
2022-08-31T18:14:23.281Z,2.63
2022-08-31T18:16:51.505Z,3.07
2022-08-31T18:19:27.435Z,2.00
2022-08-31T18:21:55.333Z,2.20
2022-08-31T18:24:23.026Z,2.33
2022-08-31T18:26:52.107Z,1.90
2022-08-31T18:29:24.404Z,2.10
2022-08-31T18:31:52.439Z,2.20
2022-08-31T18:34:21.265Z,2.07
2022-08-31T18:36:48.715Z,2.17
2022-08-31T18:39:29.435Z,2.43
2022-08-31T18:42:06.164Z,1.90
2022-08-31T18:44:33.596Z,2.23
2022-08-31T18:47:01.486Z,2.47
2022-08-31T18:49:28.941Z,2.17
2022-08-31T18:51:56.167Z,2.30
2022-08-31T18:54:23.715Z,2.30
2022-08-31T18:56:51.299Z,1.90
2022-08-31T18:59:20.405Z,2.07
2022-08-31T19:01:47.838Z,2.30
2022-08-31T19:04:19.873Z,2.67
2022-08-31T19:06:48.922Z,1.83
2022-08-31T19:09:16.140Z,2.40
2022-08-31T19:11:43.365Z,2.27
2022-08-31T19:14:10.596Z,2.53
2022-08-31T19:16:39.205Z,2.00
2022-08-31T19:19:06.499Z,2.17
2022-08-31T19:21:34.731Z,1.83
2022-08-31T19:24:03.095Z,2.30
2022-08-31T19:26:34.023Z,2.07
2022-08-31T19:29:01.258Z,1.87
2022-08-31T19:31:28.539Z,2.37
2022-08-31T19:33:57.393Z,1.60
2022-08-31T19:36:24.945Z,1.90
2022-08-31T19:38:53.932Z,1.87
2022-08-31T19:41:22.902Z,2.30
2022-08-31T19:44:02.828Z,1.77
2022-08-31T19:46:32.928Z,1.90
2022-08-31T19:49:01.556Z,1.77
2022-08-31T19:51:29.418Z,1.90
2022-08-31T19:53:57.070Z,1.50
2022-08-31T19:56:25.503Z,1.80
2022-08-31T19:58:53.502Z,1.83
2022-08-31T20:01:21.830Z,1.97
2022-08-31T20:03:49.065Z,1.67
2022-08-31T20:06:18.678Z,2.00
2022-08-31T20:08:46.107Z,1.93
2022-08-31T20:11:18.129Z,2.43
2022-08-31T20:13:48.618Z,1.87
2022-08-31T20:16:16.072Z,1.60
2022-08-31T20:18:43.526Z,1.53
2022-08-31T20:21:12.183Z,1.47
2022-08-31T20:23:42.235Z,1.70
2022-08-31T20:26:09.465Z,2.00
2022-08-31T20:28:36.679Z,1.33
2022-08-31T20:31:05.460Z,1.50
2022-08-31T20:33:32.811Z,1.80
2022-08-31T20:36:00.035Z,1.97
2022-08-31T20:38:27.394Z,1.80
2022-08-31T20:40:55.980Z,1.73
2022-08-31T20:43:23.834Z,1.37
2022-08-31T20:45:51.267Z,1.60
2022-08-31T20:48:18.433Z,1.40
2022-08-31T20:50:49.011Z,1.73
2022-08-31T20:53:17.329Z,1.83
2022-08-31T20:55:52.085Z,1.90
2022-08-31T20:58:20.577Z,2.10
2022-08-31T21:00:47.745Z,1.33
2022-08-31T21:03:15.305Z,1.50
2022-08-31T21:05:43.317Z,1.73
2022-08-31T21:08:10.739Z,1.60
2022-08-31T21:10:38.519Z,1.30
2022-08-31T21:13:06.622Z,2.10
2022-08-31T21:15:35.248Z,2.10
2022-08-31T21:18:02.502Z,1.80
2022-08-31T21:20:29.688Z,1.90
2022-08-31T21:22:56.809Z,1.73
2022-08-31T21:25:23.939Z,1.50
2022-08-31T21:27:51.141Z,1.63
2022-08-31T21:30:18.288Z,2.20
2022-08-31T21:32:46.794Z,1.60
2022-08-31T21:35:14.134Z,2.33
2022-08-31T21:37:41.622Z,1.90
2022-08-31T21:40:09.198Z,2.37
2022-08-31T21:42:36.371Z,1.93
2022-08-31T21:45:03.708Z,1.60
2022-08-31T21:47:30.837Z,1.90
2022-08-31T21:49:59.321Z,1.57
2022-08-31T21:52:26.457Z,1.73
2022-08-31T21:54:53.607Z,1.83
2022-08-31T21:57:20.748Z,1.60
2022-08-31T21:59:47.897Z,1.63
2022-08-31T22:02:15.038Z,1.70
2022-08-31T22:04:42.974Z,1.60
2022-08-31T22:07:11.753Z,1.43
2022-08-31T22:09:38.986Z,1.47
2022-08-31T22:12:06.779Z,1.80
2022-08-31T22:14:35.654Z,1.57
2022-08-31T22:17:03.237Z,2.50
2022-08-31T22:19:30.479Z,1.67
2022-08-31T22:21:58.678Z,2.13
2022-08-31T22:24:28.517Z,1.70
2022-08-31T22:26:57.113Z,1.80
2022-08-31T22:29:25.619Z,1.83
2022-08-31T22:31:55.226Z,1.80
2022-08-31T22:34:22.507Z,1.43
2022-08-31T22:36:50.607Z,1.67
2022-08-31T22:39:19.039Z,1.90
2022-08-31T22:41:47.582Z,1.47
2022-08-31T22:44:16.311Z,1.87
2022-08-31T22:46:43.984Z,1.50
2022-08-31T22:49:11.140Z,1.80
2022-08-31T22:51:40.025Z,1.67
2022-08-31T22:54:08.014Z,1.80
2022-08-31T22:56:36.193Z,1.90
2022-08-31T22:59:06.207Z,1.57
2022-08-31T23:01:34.413Z,1.60
2022-08-31T23:04:02.713Z,1.80
2022-08-31T23:06:29.877Z,1.80
2022-08-31T23:08:57.836Z,1.80
2022-08-31T23:11:25.626Z,1.60
2022-08-31T23:13:54.654Z,1.83
2022-08-31T23:16:24.938Z,2.07
2022-08-31T23:18:52.263Z,2.07
2022-08-31T23:21:19.517Z,1.97
2022-08-31T23:23:46.640Z,2.03
2022-08-31T23:26:13.774Z,2.10
2022-08-31T23:28:40.924Z,1.97
2022-08-31T23:31:08.245Z,1.87
2022-08-31T23:33:37.098Z,1.50
2022-08-31T23:36:04.994Z,2.30
2022-08-31T23:38:32.614Z,2.00
2022-08-31T23:40:59.771Z,1.87
2022-08-31T23:43:27.008Z,2.07
2022-08-31T23:45:54.557Z,2.47
2022-08-31T23:48:21.977Z,2.47
2022-08-31T23:50:50.536Z,2.03
2022-08-31T23:53:17.822Z,1.73
2022-08-31T23:55:45.311Z,1.93
2022-08-31T23:58:12.466Z,1.87
